Time;durP1;ratioP1;P1;durP2;ratioP2;P2;SDS_P1;SDS_P2;PMS_P1;PMS_P2;Temp;Humidity;BMP_temperature;BMP_pressure;BME280_temperature;BME280_humidity;BME280_pressure;Samples;Min_cycle;Max_cycle;Signal;HPM_P1;HPM_P2
2022/12/11 00:00:42;;;;;;;36.13;17.65;;;;;;;;;;6245488;28;20045;-73
2022/12/11 00:03:48;;;;;;;25.58;13.45;;;;;;;;;;6245396;28;20249;-73
2022/12/11 00:06:50;;;;;;;23.23;13.23;;;;;;;;;;6244621;28;20087;-73
2022/12/11 00:09:52;;;;;;;22.85;12.93;;;;;;;;;;6244209;28;20056;-73
2022/12/11 00:12:53;;;;;;;25.92;13.68;;;;;;;;;;6243330;28;20053;-72
2022/12/11 00:15:55;;;;;;;22.45;12.27;;;;;;;;;;6247319;28;20076;-72
2022/12/11 00:18:58;;;;;;;24.58;12.77;;;;;;;;;;6244907;28;20060;-72
2022/12/11 00:22:00;;;;;;;25.58;13.55;;;;;;;;;;6245553;28;20053;-73
2022/12/11 00:25:01;;;;;;;24.98;13.15;;;;;;;;;;6243889;28;20268;-72
2022/12/11 00:28:03;;;;;;;29.70;14.15;;;;;;;;;;6246275;28;20053;-73
2022/12/11 00:31:06;;;;;;;25.48;13.80;;;;;;;;;;6243730;28;20057;-72
2022/12/11 00:34:10;;;;;;;25.35;13.85;;;;;;;;;;6243725;28;20089;-73
2022/12/11 00:37:12;;;;;;;30.77;15.82;;;;;;;;;;6245423;28;20060;-72
2022/12/11 00:40:14;;;;;;;31.58;15.70;;;;;;;;;;6245192;28;20080;-72
2022/12/11 00:43:16;;;;;;;32.28;15.45;;;;;;;;;;6246321;28;20058;-73
2022/12/11 00:46:18;;;;;;;33.42;16.05;;;;;;;;;;6243349;28;20054;-73
2022/12/11 00:49:21;;;;;;;39.85;17.42;;;;;;;;;;6244489;28;20236;-72
2022/12/11 00:52:23;;;;;;;38.70;16.02;;;;;;;;;;6243673;28;20064;-72
2022/12/11 00:55:27;;;;;;;41.35;18.05;;;;;;;;;;6243814;28;20250;-72
2022/12/11 00:58:29;;;;;;;42.95;17.48;;;;;;;;;;6247431;28;20296;-72
2022/12/11 01:01:30;;;;;;;43.20;17.55;;;;;;;;;;6245862;28;20352;-72
2022/12/11 01:04:35;;;;;;;37.45;17.92;;;;;;;;;;6244635;28;20500;-72
2022/12/11 01:07:37;;;;;;;41.40;17.42;;;;;;;;;;6244601;28;20207;-72
2022/12/11 01:10:38;;;;;;;46.95;19.00;;;;;;;;;;6242737;28;20079;-72
2022/12/11 01:13:40;;;;;;;39.35;18.48;;;;;;;;;;6244963;28;20214;-72
2022/12/11 01:16:42;;;;;;;38.72;17.77;;;;;;;;;;6244903;28;20143;-72
2022/12/11 01:19:45;;;;;;;34.00;17.20;;;;;;;;;;6244997;28;20581;-72
2022/12/11 01:22:47;;;;;;;31.25;15.23;;;;;;;;;;6242374;28;20356;-72
2022/12/11 01:25:49;;;;;;;32.85;16.55;;;;;;;;;;6242160;28;20360;-72
2022/12/11 01:28:51;;;;;;;39.72;16.98;;;;;;;;;;6245785;28;20329;-72
2022/12/11 01:31:53;;;;;;;32.13;15.80;;;;;;;;;;6249736;28;20068;-72
2022/12/11 01:34:56;;;;;;;33.17;15.95;;;;;;;;;;6248711;28;20064;-72
2022/12/11 01:37:59;;;;;;;32.63;16.60;;;;;;;;;;6246983;28;20052;-72
2022/12/11 01:41:00;;;;;;;31.83;15.48;;;;;;;;;;6250161;28;20041;-73
2022/12/11 01:44:06;;;;;;;30.73;14.02;;;;;;;;;;6253330;28;20103;-72
2022/12/11 01:47:08;;;;;;;24.70;13.57;;;;;;;;;;6250075;28;20345;-72
2022/12/11 01:50:11;;;;;;;23.95;13.30;;;;;;;;;;6247911;28;20423;-72
2022/12/11 01:53:17;;;;;;;28.63;14.18;;;;;;;;;;6248302;28;20136;-72
2022/12/11 01:56:19;;;;;;;30.35;13.73;;;;;;;;;;6246155;28;20057;-72
2022/12/11 01:59:25;;;;;;;31.17;15.00;;;;;;;;;;6250132;28;20053;-73
2022/12/11 02:02:29;;;;;;;29.30;14.57;;;;;;;;;;6251410;28;20870;-72
2022/12/11 02:05:33;;;;;;;28.45;14.55;;;;;;;;;;6240977;28;20053;-71
2022/12/11 02:08:34;;;;;;;30.20;14.88;;;;;;;;;;6247472;28;20053;-71
2022/12/11 02:11:44;;;;;;;27.58;14.57;;;;;;;;;;6247505;28;20352;-71
2022/12/11 02:14:50;;;;;;;23.35;12.23;;;;;;;;;;6248613;28;20057;-72
2022/12/11 02:17:56;;;;;;;25.52;13.27;;;;;;;;;;6247941;28;20057;-71
2022/12/11 02:21:03;;;;;;;29.17;13.30;;;;;;;;;;6248700;28;20058;-72
2022/12/11 02:24:20;;;;;;;24.05;12.80;;;;;;;;;;6248111;28;20053;-72
2022/12/11 02:27:29;;;;;;;23.98;12.68;;;;;;;;;;6247206;28;20054;-72
2022/12/11 02:30:32;;;;;;;22.25;12.00;;;;;;;;;;6245621;28;20159;-72
2022/12/11 02:33:38;;;;;;;24.25;12.13;;;;;;;;;;6243443;28;20064;-71
2022/12/11 02:36:43;;;;;;;25.92;12.95;;;;;;;;;;6250123;28;20042;-72
2022/12/11 02:39:45;;;;;;;22.23;11.88;;;;;;;;;;6246471;28;20061;-72
2022/12/11 02:42:48;;;;;;;25.05;12.88;;;;;;;;;;6246359;28;20045;-72
2022/12/11 02:45:51;;;;;;;25.27;13.23;;;;;;;;;;6248269;28;20426;-71
2022/12/11 02:48:54;;;;;;;25.55;12.77;;;;;;;;;;6246707;28;20056;-72
2022/12/11 02:51:56;;;;;;;23.83;12.95;;;;;;;;;;6246716;28;20056;-72
2022/12/11 02:54:59;;;;;;;26.05;13.18;;;;;;;;;;6247220;28;20057;-71
2022/12/11 02:58:05;;;;;;;29.23;14.10;;;;;;;;;;6246507;28;20067;-71
2022/12/11 03:01:08;;;;;;;24.55;13.27;;;;;;;;;;6242100;28;20047;-72
2022/12/11 03:04:10;;;;;;;28.50;13.77;;;;;;;;;;6246525;28;20060;-72
2022/12/11 03:07:14;;;;;;;27.10;13.27;;;;;;;;;;6246527;28;20042;-71
2022/12/11 03:10:18;;;;;;;30.50;14.85;;;;;;;;;;6244890;28;20139;-71
2022/12/11 03:13:21;;;;;;;26.60;13.43;;;;;;;;;;6246973;28;20109;-71
2022/12/11 03:16:30;;;;;;;32.78;14.13;;;;;;;;;;6246711;28;20045;-71
2022/12/11 03:19:35;;;;;;;33.60;14.35;;;;;;;;;;6243982;28;20060;-71
2022/12/11 03:22:39;;;;;;;25.17;12.88;;;;;;;;;;6244513;28;20057;-72
2022/12/11 03:25:46;;;;;;;32.97;14.48;;;;;;;;;;6246071;28;20052;-71
2022/12/11 03:28:51;;;;;;;30.98;13.57;;;;;;;;;;6243801;28;20057;-71
2022/12/11 03:31:58;;;;;;;32.95;14.45;;;;;;;;;;6246905;28;20056;-71
2022/12/11 03:35:03;;;;;;;33.10;14.43;;;;;;;;;;6244920;28;20042;-71
2022/12/11 03:38:07;;;;;;;34.03;16.20;;;;;;;;;;6245283;28;20321;-72
2022/12/11 03:41:10;;;;;;;28.17;14.48;;;;;;;;;;6247207;28;20057;-71
2022/12/11 03:44:12;;;;;;;36.28;15.40;;;;;;;;;;6248647;28;20162;-71
2022/12/11 03:47:19;;;;;;;37.40;15.07;;;;;;;;;;6242846;28;21208;-71
2022/12/11 03:50:22;;;;;;;35.65;16.92;;;;;;;;;;6245615;28;20045;-72
2022/12/11 03:53:26;;;;;;;40.85;16.77;;;;;;;;;;6243992;28;20076;-71
2022/12/11 03:56:29;;;;;;;36.78;15.50;;;;;;;;;;6248108;28;20053;-71
2022/12/11 03:59:30;;;;;;;38.63;16.73;;;;;;;;;;6245765;28;20050;-71
2022/12/11 04:02:33;;;;;;;34.47;15.77;;;;;;;;;;6247943;28;20053;-72
2022/12/11 04:05:36;;;;;;;38.22;17.20;;;;;;;;;;6244633;28;20046;-71
2022/12/11 04:08:37;;;;;;;37.22;16.20;;;;;;;;;;6243276;28;20052;-71
2022/12/11 04:11:41;;;;;;;37.75;17.67;;;;;;;;;;6245206;28;20053;-71
2022/12/11 04:24:42;;;;;;;28.45;14.65;;;;;;;;;;6243822;28;21761;-71
2022/12/11 04:27:49;;;;;;;29.15;14.63;;;;;;;;;;6246775;28;20050;-72
2022/12/11 04:30:51;;;;;;;34.20;15.20;;;;;;;;;;6246261;28;20132;-72
2022/12/11 04:33:54;;;;;;;28.00;13.27;;;;;;;;;;6244917;28;20281;-71
2022/12/11 04:36:56;;;;;;;23.67;13.35;;;;;;;;;;6244485;28;20072;-71
2022/12/11 04:39:57;;;;;;;25.98;13.20;;;;;;;;;;6246401;28;20046;-72
2022/12/11 04:42:59;;;;;;;22.52;12.57;;;;;;;;;;6244439;28;20043;-72
2022/12/11 04:46:02;;;;;;;18.88;11.65;;;;;;;;;;6243363;28;20057;-71
2022/12/11 04:49:05;;;;;;;18.42;10.60;;;;;;;;;;6245161;28;20053;-71
2022/12/11 04:52:07;;;;;;;22.88;10.73;;;;;;;;;;6244572;28;20053;-71
2022/12/11 04:55:10;;;;;;;21.45;10.32;;;;;;;;;;6245696;28;20053;-71
2022/12/11 04:58:11;;;;;;;17.75;10.57;;;;;;;;;;6242166;28;20053;-71
2022/12/11 05:01:15;;;;;;;16.30;9.48;;;;;;;;;;6245354;28;20328;-71
2022/12/11 05:04:18;;;;;;;21.65;10.52;;;;;;;;;;6245707;28;20058;-72
2022/12/11 05:07:20;;;;;;;17.95;9.43;;;;;;;;;;6244055;28;20054;-72
2022/12/11 05:10:22;;;;;;;16.30;9.55;;;;;;;;;;6243143;28;20049;-72
2022/12/11 05:13:23;;;;;;;16.35;8.80;;;;;;;;;;6244507;28;20072;-71
2022/12/11 05:16:25;;;;;;;15.65;8.57;;;;;;;;;;6247451;28;20053;-71
2022/12/11 05:19:28;;;;;;;15.57;8.63;;;;;;;;;;6244349;28;20053;-71
2022/12/11 05:22:30;;;;;;;14.07;8.02;;;;;;;;;;6245218;28;20053;-71
2022/12/11 05:25:32;;;;;;;17.33;8.45;;;;;;;;;;6244855;28;20046;-71
2022/12/11 05:28:36;;;;;;;13.75;7.60;;;;;;;;;;6244445;28;20147;-72
2022/12/11 05:31:38;;;;;;;12.10;7.53;;;;;;;;;;6245095;28;20336;-72
2022/12/11 05:34:41;;;;;;;10.27;6.63;;;;;;;;;;6244082;28;20360;-72
2022/12/11 05:37:43;;;;;;;14.65;7.30;;;;;;;;;;6228876;28;20380;-72
2022/12/11 05:40:44;;;;;;;12.93;6.90;;;;;;;;;;6235651;28;20398;-72
2022/12/11 05:43:46;;;;;;;11.27;6.50;;;;;;;;;;6237074;28;20076;-71
2022/12/11 05:46:48;;;;;;;11.27;5.95;;;;;;;;;;6238237;28;20226;-72
2022/12/11 05:49:51;;;;;;;10.05;5.45;;;;;;;;;;6243132;28;20132;-71
2022/12/11 05:52:53;;;;;;;10.75;6.35;;;;;;;;;;6240337;28;20057;-71
2022/12/11 05:55:55;;;;;;;14.50;6.15;;;;;;;;;;6242476;28;20057;-72
2022/12/11 05:58:57;;;;;;;10.77;5.47;;;;;;;;;;6246752;28;20045;-71
2022/12/11 06:01:59;;;;;;;11.00;5.00;;;;;;;;;;6246815;28;20053;-72
2022/12/11 06:05:02;;;;;;;8.40;4.65;;;;;;;;;;6241866;28;20041;-72
2022/12/11 06:08:04;;;;;;;6.82;4.22;;;;;;;;;;6242221;28;20077;-71
2022/12/11 06:11:06;;;;;;;4.13;2.80;;;;;;;;;;6242501;28;20050;-72
2022/12/11 06:14:09;;;;;;;6.53;2.90;;;;;;;;;;6242852;28;20045;-71
2022/12/11 06:17:11;;;;;;;5.10;2.60;;;;;;;;;;6247615;28;20056;-71
2022/12/11 06:20:14;;;;;;;4.82;2.65;;;;;;;;;;6247254;28;20119;-71
2022/12/11 06:23:16;;;;;;;6.50;3.35;;;;;;;;;;6248866;28;20107;-71
2022/12/11 06:26:18;;;;;;;4.65;2.55;;;;;;;;;;6248251;28;20053;-70
2022/12/11 06:29:20;;;;;;;4.07;2.40;;;;;;;;;;6246953;28;20045;-71
2022/12/11 06:32:22;;;;;;;3.33;1.73;;;;;;;;;;6247129;28;20056;-71
2022/12/11 06:35:25;;;;;;;3.95;1.40;;;;;;;;;;6247770;28;20049;-71
2022/12/11 06:38:27;;;;;;;3.22;1.77;;;;;;;;;;6248753;28;20046;-72
2022/12/11 06:41:28;;;;;;;2.22;1.30;;;;;;;;;;6242294;28;20058;-72
2022/12/11 06:44:30;;;;;;;2.28;1.50;;;;;;;;;;6247798;28;20061;-71
2022/12/11 06:47:32;;;;;;;3.00;1.73;;;;;;;;;;6248566;28;20099;-72
2022/12/11 06:50:35;;;;;;;2.60;1.30;;;;;;;;;;6246323;28;20049;-71
2022/12/11 06:53:37;;;;;;;2.00;1.00;;;;;;;;;;6244654;28;20056;-72
2022/12/11 06:56:38;;;;;;;2.30;1.20;;;;;;;;;;6247953;28;20064;-72
2022/12/11 06:59:40;;;;;;;2.75;1.60;;;;;;;;;;6245538;28;20107;-71
2022/12/11 07:02:42;;;;;;;1.55;1.08;;;;;;;;;;6245770;28;20164;-71
2022/12/11 07:05:45;;;;;;;1.27;0.88;;;;;;;;;;6247252;28;20057;-72
2022/12/11 07:08:47;;;;;;;2.00;1.00;;;;;;;;;;6245543;28;20053;-71
2022/12/11 07:11:49;;;;;;;3.22;1.05;;;;;;;;;;6246773;28;20061;-72
2022/12/11 07:14:52;;;;;;;2.40;1.45;;;;;;;;;;6243954;28;20349;-72
2022/12/11 07:17:53;;;;;;;2.17;1.30;;;;;;;;;;6246833;28;20053;-71
2022/12/11 07:20:57;;;;;;;2.47;1.30;;;;;;;;;;6243614;28;20057;-71
2022/12/11 07:23:59;;;;;;;1.92;1.00;;;;;;;;;;6247484;28;20097;-72
2022/12/11 07:27:01;;;;;;;2.08;1.38;;;;;;;;;;6246389;28;20042;-72
2022/12/11 07:30:03;;;;;;;2.95;1.55;;;;;;;;;;6246807;28;20683;-72
2022/12/11 07:33:05;;;;;;;2.63;1.50;;;;;;;;;;6245286;28;20446;-71
2022/12/11 07:36:10;;;;;;;2.50;1.30;;;;;;;;;;6247032;28;20307;-72
2022/12/11 07:39:12;;;;;;;2.08;1.10;;;;;;;;;;6246039;28;20049;-71
2022/12/11 07:42:14;;;;;;;2.80;1.30;;;;;;;;;;6245540;28;20108;-72
2022/12/11 07:45:16;;;;;;;2.25;1.23;;;;;;;;;;6242471;28;21234;-70
2022/12/11 07:48:17;;;;;;;2.47;1.30;;;;;;;;;;6244297;28;20059;-72
2022/12/11 07:51:25;;;;;;;1.67;0.90;;;;;;;;;;6245490;28;20333;-71
2022/12/11 07:54:27;;;;;;;1.95;0.85;;;;;;;;;;6245688;28;20059;-71
2022/12/11 07:57:29;;;;;;;2.05;1.25;;;;;;;;;;6243210;28;20042;-72
2022/12/11 08:00:30;;;;;;;3.00;0.80;;;;;;;;;;6245242;28;20053;-72
2022/12/11 08:03:32;;;;;;;1.42;0.98;;;;;;;;;;6243091;28;20395;-71
2022/12/11 08:06:37;;;;;;;2.20;1.00;;;;;;;;;;6244636;28;20054;-71
2022/12/11 08:09:38;;;;;;;1.33;0.90;;;;;;;;;;6244457;28;20095;-71
2022/12/11 08:12:40;;;;;;;2.92;1.13;;;;;;;;;;6246133;28;20065;-71
2022/12/11 08:15:42;;;;;;;1.42;1.00;;;;;;;;;;6244839;28;20092;-72
2022/12/11 08:18:44;;;;;;;2.83;0.98;;;;;;;;;;6247270;28;20053;-72
2022/12/11 08:21:47;;;;;;;5.97;1.40;;;;;;;;;;6243835;28;20057;-72
2022/12/11 08:24:49;;;;;;;1.50;1.00;;;;;;;;;;6241750;28;20064;-72
2022/12/11 08:27:51;;;;;;;2.92;1.27;;;;;;;;;;6245985;28;20060;-72
2022/12/11 08:30:52;;;;;;;6.40;3.75;;;;;;;;;;6243930;28;20116;-71
2022/12/11 08:33:55;;;;;;;9.73;5.75;;;;;;;;;;6244883;28;20099;-72
2022/12/11 08:36:58;;;;;;;7.30;4.75;;;;;;;;;;6243682;28;20064;-79
2022/12/11 08:40:00;;;;;;;8.70;5.57;;;;;;;;;;6242622;28;20046;-76
2022/12/11 08:43:02;;;;;;;9.07;5.28;;;;;;;;;;6246356;28;20057;-76
2022/12/11 08:46:03;;;;;;;6.30;3.70;;;;;;;;;;6244099;28;20045;-76
2022/12/11 08:49:05;;;;;;;7.97;3.95;;;;;;;;;;6240362;28;20053;-76
2022/12/11 08:52:08;;;;;;;3.38;2.22;;;;;;;;;;6242722;28;20111;-76
2022/12/11 08:55:10;;;;;;;2.38;1.35;;;;;;;;;;6245102;28;20057;-75
2022/12/11 08:58:11;;;;;;;1.60;1.10;;;;;;;;;;6243102;28;20056;-75
2022/12/11 09:01:16;;;;;;;1.48;1.00;;;;;;;;;;6246031;28;20057;-75
2022/12/11 09:04:18;;;;;;;3.03;1.15;;;;;;;;;;6243636;28;20115;-74
2022/12/11 09:07:21;;;;;;;2.30;1.52;;;;;;;;;;6238972;28;20045;-69
2022/12/11 09:10:23;;;;;;;1.35;1.00;;;;;;;;;;6244250;28;20049;-69
2022/12/11 09:13:24;;;;;;;1.20;0.93;;;;;;;;;;6242878;28;20134;-69
2022/12/11 09:16:27;;;;;;;1.95;1.00;;;;;;;;;;6243183;28;20076;-69
2022/12/11 09:19:29;;;;;;;1.60;1.00;;;;;;;;;;6243133;28;20088;-69
2022/12/11 09:22:33;;;;;;;1.17;0.88;;;;;;;;;;6239811;28;20049;-69
2022/12/11 09:25:35;;;;;;;;;;;;;;;;;;6242644;28;20049;-69
2022/12/11 09:28:37;;;;;;;1.33;1.10;;;;;;;;;;6242181;28;19932;-69
2022/12/11 09:31:39;;;;;;;1.98;1.27;;;;;;;;;;6243950;28;20052;-69
2022/12/11 09:34:41;;;;;;;1.60;1.10;;;;;;;;;;6244930;28;20326;-70
2022/12/11 09:37:44;;;;;;;2.28;1.15;;;;;;;;;;6242533;28;20061;-70
2022/12/11 09:40:45;;;;;;;2.08;1.10;;;;;;;;;;6243012;28;20061;-70
2022/12/11 09:43:50;;;;;;;4.43;2.50;;;;;;;;;;6245208;28;20060;-71
2022/12/11 09:46:52;;;;;;;10.10;4.78;;;;;;;;;;6244447;28;20049;-71
2022/12/11 09:50:00;;;;;;;8.00;5.03;;;;;;;;;;6245926;28;20317;-71
2022/12/11 09:53:08;;;;;;;12.70;6.90;;;;;;;;;;6248224;28;20091;-71
2022/12/11 09:56:15;;;;;;;12.00;6.57;;;;;;;;;;6249880;28;20062;-71
2022/12/11 09:59:23;;;;;;;9.48;6.40;;;;;;;;;;6247401;28;20076;-70
2022/12/11 10:02:31;;;;;;;90.80;12.80;;;;;;;;;;6250945;28;20060;-72
2022/12/11 10:05:37;;;;;;;20.25;7.32;;;;;;;;;;6248003;28;20337;-73
2022/12/11 10:08:46;;;;;;;9.27;6.45;;;;;;;;;;6247865;28;20072;-73
2022/12/11 10:11:56;;;;;;;10.57;6.55;;;;;;;;;;6246844;28;20045;-73
2022/12/11 10:15:12;;;;;;;9.57;6.43;;;;;;;;;;6251470;28;20064;-72
2022/12/11 10:18:17;;;;;;;9.88;6.45;;;;;;;;;;6249023;28;20046;-72
2022/12/11 10:21:19;;;;;;;8.45;5.90;;;;;;;;;;6243899;28;20079;-71
2022/12/11 10:24:25;;;;;;;8.25;5.35;;;;;;;;;;6248770;28;20053;-72
2022/12/11 10:27:31;;;;;;;7.63;5.78;;;;;;;;;;6250134;28;20232;-71
2022/12/11 10:30:36;;;;;;;7.88;6.18;;;;;;;;;;6247562;28;20117;-72
2022/12/11 10:33:43;;;;;;;7.40;5.63;;;;;;;;;;6245336;28;20133;-72
2022/12/11 10:36:45;;;;;;;9.13;6.30;;;;;;;;;;6247145;28;20045;-72
2022/12/11 10:39:48;;;;;;;8.82;6.28;;;;;;;;;;6244891;28;20080;-72
2022/12/11 10:42:53;;;;;;;8.23;6.00;;;;;;;;;;6223353;28;20131;-69
2022/12/11 10:45:55;;;;;;;8.30;6.15;;;;;;;;;;6222168;28;20112;-72
2022/12/11 10:48:58;;;;;;;8.85;6.13;;;;;;;;;;6221798;28;20084;-72
2022/12/11 10:52:01;;;;;;;8.18;5.95;;;;;;;;;;6221741;28;20105;-72
2022/12/11 10:55:06;;;;;;;8.05;5.93;;;;;;;;;;6223631;28;20580;-72
2022/12/11 10:58:16;;;;;;;9.10;6.15;;;;;;;;;;6222623;28;20054;-71
2022/12/11 11:01:21;;;;;;;8.88;6.15;;;;;;;;;;6220601;28;20053;-72
2022/12/11 11:04:28;;;;;;;8.13;5.80;;;;;;;;;;6225323;28;20074;-72
2022/12/11 11:07:31;;;;;;;8.38;5.90;;;;;;;;;;6219560;28;20269;-72
2022/12/11 11:10:35;;;;;;;7.88;5.80;;;;;;;;;;6223031;28;20631;-73
2022/12/11 11:13:37;;;;;;;8.75;5.47;;;;;;;;;;6220044;28;20042;-73
2022/12/11 11:16:40;;;;;;;8.50;6.38;;;;;;;;;;6220879;28;20058;-72
2022/12/11 11:19:46;;;;;;;8.65;5.60;;;;;;;;;;6221767;28;20057;-72
2022/12/11 11:22:51;;;;;;;8.45;5.40;;;;;;;;;;6223790;28;20338;-72
2022/12/11 11:25:56;;;;;;;9.73;5.55;;;;;;;;;;6220995;28;20055;-72
2022/12/11 11:28:58;;;;;;;7.70;5.60;;;;;;;;;;6222999;28;20045;-72
2022/12/11 11:32:03;;;;;;;8.13;5.50;;;;;;;;;;6216140;28;20049;-72
2022/12/11 11:35:18;;;;;;;7.00;4.90;;;;;;;;;;6220148;28;20108;-74
2022/12/11 11:38:21;;;;;;;7.53;5.00;;;;;;;;;;6223618;28;20659;-73
2022/12/11 11:41:29;;;;;;;6.30;4.45;;;;;;;;;;6234597;28;20069;-76
2022/12/11 11:44:34;;;;;;;4.85;3.90;;;;;;;;;;6245502;28;20068;-74
2022/12/11 11:47:40;;;;;;;5.97;4.70;;;;;;;;;;6244461;28;20042;-76
2022/12/11 11:50:45;;;;;;;7.60;4.40;;;;;;;;;;6242831;28;20045;-71
2022/12/11 11:53:49;;;;;;;6.70;4.78;;;;;;;;;;6244986;28;20372;-74
2022/12/11 11:56:54;;;;;;;5.85;4.25;;;;;;;;;;6247530;28;20953;-74
2022/12/11 12:00:06;;;;;;;5.75;3.78;;;;;;;;;;6248878;28;20056;-74
2022/12/11 12:03:11;;;;;;;4.90;3.60;;;;;;;;;;6246608;28;20060;-75
2022/12/11 12:06:18;;;;;;;8.98;3.67;;;;;;;;;;6246042;28;20045;-74
2022/12/11 12:09:29;;;;;;;6.90;3.80;;;;;;;;;;6245440;28;20075;-75
2022/12/11 12:12:38;;;;;;;6.38;4.30;;;;;;;;;;6244211;28;20124;-75
2022/12/11 12:15:45;;;;;;;5.22;4.03;;;;;;;;;;6246248;28;20049;-75
2022/12/11 12:18:52;;;;;;;5.55;3.85;;;;;;;;;;6247321;28;20104;-75
2022/12/11 12:21:54;;;;;;;6.43;3.95;;;;;;;;;;6243057;28;20053;-74
2022/12/11 12:25:06;;;;;;;6.05;3.97;;;;;;;;;;6244719;28;20115;-74
2022/12/11 12:28:18;;;;;;;7.55;4.40;;;;;;;;;;6244058;28;20065;-74
2022/12/11 12:31:29;;;;;;;5.40;4.00;;;;;;;;;;6242512;28;20084;-72
2022/12/11 12:34:44;;;;;;;5.32;3.88;;;;;;;;;;6237574;28;20062;-72
2022/12/11 12:37:54;;;;;;;6.57;4.30;;;;;;;;;;6242512;28;20183;-73
2022/12/11 12:41:01;;;;;;;5.90;4.18;;;;;;;;;;6242352;28;20107;-73
2022/12/11 12:44:12;;;;;;;7.20;4.05;;;;;;;;;;6245376;28;20774;-72
2022/12/11 12:47:16;;;;;;;8.70;4.75;;;;;;;;;;6245243;28;20060;-72
2022/12/11 12:50:20;;;;;;;6.57;4.28;;;;;;;;;;6242789;28;20154;-72
2022/12/11 12:53:24;;;;;;;7.40;4.43;;;;;;;;;;6248709;28;20059;-73
2022/12/11 12:56:27;;;;;;;6.40;4.13;;;;;;;;;;6247940;28;20116;-71
2022/12/11 12:59:30;;;;;;;8.48;4.65;;;;;;;;;;6244079;28;20075;-72
2022/12/11 13:02:32;;;;;;;4.88;3.95;;;;;;;;;;6248083;28;20087;-74
2022/12/11 13:05:35;;;;;;;7.55;4.68;;;;;;;;;;6245556;28;20100;-72
2022/12/11 13:08:39;;;;;;;6.38;4.50;;;;;;;;;;6246555;28;20365;-73
2022/12/11 13:11:41;;;;;;;6.55;4.80;;;;;;;;;;6245317;28;20326;-72
2022/12/11 13:14:44;;;;;;;6.57;4.22;;;;;;;;;;6246690;28;20050;-73
2022/12/11 13:17:46;;;;;;;6.97;4.93;;;;;;;;;;6240456;28;20184;-73
2022/12/11 13:20:49;;;;;;;8.50;4.63;;;;;;;;;;6242970;28;20061;-73
2022/12/11 13:23:51;;;;;;;7.15;4.72;;;;;;;;;;6245408;28;20072;-74
2022/12/11 13:26:53;;;;;;;6.70;4.93;;;;;;;;;;6247991;28;20069;-73
2022/12/11 13:30:07;;;;;;;7.30;4.93;;;;;;;;;;6247755;28;20111;-73
2022/12/11 13:33:16;;;;;;;7.18;4.75;;;;;;;;;;6249147;28;20041;-74
2022/12/11 13:36:31;;;;;;;7.10;4.60;;;;;;;;;;6247301;28;20049;-74
2022/12/11 13:39:34;;;;;;;9.02;4.88;;;;;;;;;;6248838;28;20391;-73
2022/12/11 13:42:41;;;;;;;8.32;4.75;;;;;;;;;;6249682;28;20099;-73
2022/12/11 13:45:47;;;;;;;6.82;4.60;;;;;;;;;;6248977;28;20057;-73
2022/12/11 13:48:53;;;;;;;6.10;4.50;;;;;;;;;;6245419;28;20052;-74
2022/12/11 13:51:56;;;;;;;6.15;4.40;;;;;;;;;;6247817;28;20057;-71
2022/12/11 13:54:59;;;;;;;6.18;4.38;;;;;;;;;;6244117;28;20342;-73
2022/12/11 13:58:01;;;;;;;5.23;3.83;;;;;;;;;;6250445;28;20095;-73
2022/12/11 14:01:09;;;;;;;7.03;4.03;;;;;;;;;;6246386;28;20045;-72
2022/12/11 14:04:15;;;;;;;6.57;4.57;;;;;;;;;;6247710;28;20093;-73
2022/12/11 14:07:24;;;;;;;5.70;4.22;;;;;;;;;;6245461;28;20100;-72
2022/12/11 14:10:27;;;;;;;7.78;4.85;;;;;;;;;;6249458;28;20060;-74
2022/12/11 14:13:33;;;;;;;6.95;4.47;;;;;;;;;;6249309;28;20125;-73
2022/12/11 14:16:36;;;;;;;6.38;4.25;;;;;;;;;;6247248;28;20061;-73
2022/12/11 14:19:38;;;;;;;5.68;4.18;;;;;;;;;;6245131;28;21012;-73
2022/12/11 14:22:40;;;;;;;5.82;4.30;;;;;;;;;;6246928;28;20417;-73
2022/12/11 14:25:42;;;;;;;8.85;4.43;;;;;;;;;;6247208;28;20061;-72
2022/12/11 14:28:44;;;;;;;6.85;4.38;;;;;;;;;;6248662;28;20387;-72
2022/12/11 14:31:47;;;;;;;5.88;4.53;;;;;;;;;;6246210;28;20154;-72
2022/12/11 14:34:50;;;;;;;8.57;4.60;;;;;;;;;;6249370;28;20108;-73
2022/12/11 14:37:52;;;;;;;6.80;4.53;;;;;;;;;;6245267;28;20058;-73
2022/12/11 14:40:57;;;;;;;6.43;4.53;;;;;;;;;;6246603;28;20107;-73
2022/12/11 14:44:00;;;;;;;6.03;4.88;;;;;;;;;;6247390;28;20053;-72
2022/12/11 14:47:06;;;;;;;8.18;4.28;;;;;;;;;;6240476;28;20057;-73
2022/12/11 14:50:11;;;;;;;7.60;5.20;;;;;;;;;;6247038;28;20053;-72
2022/12/11 14:53:15;;;;;;;6.13;4.70;;;;;;;;;;6248348;28;20053;-73
2022/12/11 14:56:18;;;;;;;6.40;4.75;;;;;;;;;;6244126;28;20387;-73
2022/12/11 14:59:22;;;;;;;7.47;4.78;;;;;;;;;;6245827;28;20256;-73
2022/12/11 15:02:28;;;;;;;6.53;4.90;;;;;;;;;;6245786;28;20241;-73
2022/12/11 15:05:31;;;;;;;7.03;4.63;;;;;;;;;;6247596;28;20292;-73
2022/12/11 15:08:35;;;;;;;6.45;5.00;;;;;;;;;;6247282;28;20446;-74
2022/12/11 15:11:37;;;;;;;6.28;4.80;;;;;;;;;;6243888;28;20052;-73
2022/12/11 15:14:43;;;;;;;6.47;4.75;;;;;;;;;;6244330;28;20041;-72
2022/12/11 15:17:47;;;;;;;8.57;5.90;;;;;;;;;;6245382;28;20225;-74
2022/12/11 15:20:52;;;;;;;7.55;5.00;;;;;;;;;;6244153;28;20045;-73
2022/12/11 15:23:55;;;;;;;6.32;4.95;;;;;;;;;;6246318;28;20349;-73
2022/12/11 15:26:58;;;;;;;8.60;4.72;;;;;;;;;;6246913;28;20053;-73
2022/12/11 15:30:00;;;;;;;7.43;5.03;;;;;;;;;;6244262;28;20057;-75
2022/12/11 15:33:21;;;;;;;6.78;4.80;;;;;;;;;;6245609;28;20325;-73
2022/12/11 15:36:25;;;;;;;6.70;4.65;;;;;;;;;;6243329;28;20049;-72
2022/12/11 15:39:27;;;;;;;7.07;4.72;;;;;;;;;;6241051;28;20108;-72
2022/12/11 15:42:31;;;;;;;6.82;4.95;;;;;;;;;;6245630;28;20053;-72
2022/12/11 15:45:33;;;;;;;;;;;;;;;;;;6245643;28;20049;-74
2022/12/11 15:48:36;;;;;;;11.75;5.53;;;;;;;;;;6247349;28;19917;-74
2022/12/11 15:51:38;;;;;;;8.48;5.80;;;;;;;;;;6245756;28;20057;-73
2022/12/11 15:54:39;;;;;;;7.65;5.10;;;;;;;;;;6242502;28;20049;-72
2022/12/11 15:57:44;;;;;;;9.68;6.05;;;;;;;;;;6245556;28;20099;-74
2022/12/11 16:00:46;;;;;;;7.50;5.82;;;;;;;;;;6245559;28;20062;-72
2022/12/11 16:03:50;;;;;;;9.18;5.80;;;;;;;;;;6244821;28;20057;-73
2022/12/11 16:06:52;;;;;;;9.77;6.05;;;;;;;;;;6243114;28;21062;-72
2022/12/11 16:09:53;;;;;;;9.02;6.68;;;;;;;;;;6244888;28;20057;-73
2022/12/11 16:12:58;;;;;;;9.00;6.13;;;;;;;;;;6244622;28;20086;-73
2022/12/11 16:16:00;;;;;;;11.13;7.10;;;;;;;;;;6244764;28;20400;-72
2022/12/11 16:19:03;;;;;;;10.98;6.72;;;;;;;;;;6243685;28;20333;-75
2022/12/11 16:22:05;;;;;;;9.15;7.03;;;;;;;;;;6246894;28;20057;-74
2022/12/11 16:25:07;;;;;;;11.85;6.93;;;;;;;;;;6244786;28;20068;-72
2022/12/11 16:28:10;;;;;;;9.65;7.05;;;;;;;;;;6243188;28;20059;-75
2022/12/11 16:31:12;;;;;;;11.65;6.65;;;;;;;;;;6245794;28;20045;-73
2022/12/11 16:34:16;;;;;;;11.02;7.45;;;;;;;;;;6246190;28;20053;-72
2022/12/11 16:37:18;;;;;;;9.85;6.60;;;;;;;;;;6244073;28;20046;-72
2022/12/11 16:40:20;;;;;;;13.55;7.28;;;;;;;;;;6245646;28;20053;-74
2022/12/11 16:43:22;;;;;;;9.70;6.75;;;;;;;;;;6243470;28;20084;-72
2022/12/11 16:46:24;;;;;;;10.10;6.95;;;;;;;;;;6245114;28;20434;-73
2022/12/11 16:49:31;;;;;;;11.10;7.45;;;;;;;;;;6246541;28;20095;-72
2022/12/11 16:52:33;;;;;;;9.52;7.05;;;;;;;;;;6244478;28;20075;-73
2022/12/11 16:55:35;;;;;;;11.88;6.80;;;;;;;;;;6243531;28;20042;-74
2022/12/11 16:58:37;;;;;;;9.07;6.43;;;;;;;;;;6242457;28;20169;-72
2022/12/11 17:01:39;;;;;;;10.52;5.60;;;;;;;;;;6245039;28;20053;-72
2022/12/11 17:04:42;;;;;;;8.90;5.88;;;;;;;;;;6244139;28;20058;-73
2022/12/11 17:07:44;;;;;;;7.47;5.10;;;;;;;;;;6241721;28;20042;-73
2022/12/11 17:10:45;;;;;;;8.45;5.63;;;;;;;;;;6244007;28;20116;-73
2022/12/11 17:13:47;;;;;;;7.18;5.45;;;;;;;;;;6244191;28;20057;-71
2022/12/11 17:16:49;;;;;;;8.30;5.47;;;;;;;;;;6242539;28;20053;-72
2022/12/11 17:19:52;;;;;;;10.00;5.65;;;;;;;;;;6242344;28;20061;-71
2022/12/11 17:22:54;;;;;;;8.20;5.43;;;;;;;;;;6244913;28;20073;-72
2022/12/11 17:25:56;;;;;;;9.93;5.97;;;;;;;;;;6249805;28;20069;-72
2022/12/11 17:28:58;;;;;;;6.47;4.78;;;;;;;;;;6242743;28;20076;-71
2022/12/11 17:32:01;;;;;;;7.32;5.28;;;;;;;;;;6245755;28;20124;-72
2022/12/11 17:35:06;;;;;;;6.80;4.63;;;;;;;;;;6243145;28;20065;-72
2022/12/11 17:38:08;;;;;;;6.78;5.00;;;;;;;;;;6231454;28;20054;-71
2022/12/11 17:41:11;;;;;;;9.55;5.55;;;;;;;;;;6242298;28;20045;-71
2022/12/11 17:44:13;;;;;;;8.38;5.25;;;;;;;;;;6243318;28;20352;-72
2022/12/11 17:47:14;;;;;;;9.57;6.00;;;;;;;;;;6242686;28;20059;-72
2022/12/11 17:50:18;;;;;;;9.45;6.25;;;;;;;;;;6242986;28;20095;-71
2022/12/11 17:53:22;;;;;;;7.90;6.00;;;;;;;;;;6244462;28;20269;-71
2022/12/11 17:56:24;;;;;;;10.15;6.35;;;;;;;;;;6244660;28;20076;-72
2022/12/11 17:59:26;;;;;;;7.97;6.07;;;;;;;;;;6244121;28;20045;-71
2022/12/11 18:02:27;;;;;;;9.13;6.40;;;;;;;;;;6244339;28;20053;-71
2022/12/11 18:05:30;;;;;;;7.85;6.10;;;;;;;;;;6243709;28;20053;-71
2022/12/11 18:08:32;;;;;;;9.20;6.15;;;;;;;;;;6245356;28;20092;-71
2022/12/11 18:11:34;;;;;;;11.27;7.07;;;;;;;;;;6243433;28;20050;-71
2022/12/11 18:14:37;;;;;;;8.38;6.10;;;;;;;;;;6247516;28;20053;-71
2022/12/11 18:17:38;;;;;;;9.52;6.95;;;;;;;;;;6249970;28;20050;-72
2022/12/11 18:20:41;;;;;;;11.50;7.13;;;;;;;;;;6247872;28;20053;-71